createdAt,value
2019-01-24T00:00:19.014Z,79.60
2019-01-24T00:04:23.552Z,79.70
2019-01-24T00:08:28.099Z,79.60
2019-01-24T00:12:32.590Z,79.40
2019-01-24T00:19:20.362Z,79.20
2019-01-24T00:23:24.867Z,79.50
2019-01-24T00:27:29.408Z,79.80
2019-01-24T00:35:04.747Z,80.20
2019-01-24T00:39:09.783Z,80.80
2019-01-24T00:43:14.678Z,81.10
2019-01-24T00:47:19.270Z,81.50
2019-01-24T00:52:13.086Z,81.80
2019-01-24T00:56:17.642Z,82.50
2019-01-24T01:00:24.130Z,82.30
2019-01-24T01:04:29.812Z,81.50
2019-01-24T01:08:34.537Z,81.00
2019-01-24T01:12:39.066Z,80.80
2019-01-24T01:16:43.591Z,80.40
2019-01-24T01:20:48.153Z,79.90
2019-01-24T01:24:52.692Z,79.30
2019-01-24T01:28:57.239Z,78.90
2019-01-24T01:33:01.783Z,78.60
2019-01-24T01:37:06.275Z,78.60
2019-01-24T01:41:10.864Z,78.50
2019-01-24T01:45:17.696Z,78.60
2019-01-24T01:49:22.251Z,78.20
2019-01-24T01:53:26.774Z,78.40
2019-01-24T01:57:31.340Z,78.70
2019-01-24T02:01:35.874Z,77.60
2019-01-24T02:05:40.423Z,78.10
2019-01-24T02:09:44.971Z,78.00
2019-01-24T02:13:49.483Z,78.00
2019-01-24T02:17:54.021Z,77.20
2019-01-24T02:21:58.566Z,78.00
2019-01-24T02:26:03.102Z,78.30
2019-01-24T02:30:09.659Z,77.80
2019-01-24T02:34:14.187Z,77.10
2019-01-24T02:38:18.739Z,77.20
2019-01-24T02:42:23.309Z,77.90
2019-01-24T02:46:27.850Z,77.60
2019-01-24T02:50:32.372Z,77.00
2019-01-24T02:54:36.914Z,77.50
2019-01-24T02:58:41.436Z,77.90
2019-01-24T03:02:45.966Z,77.90
2019-01-24T03:06:50.475Z,77.80
2019-01-24T03:10:55.036Z,77.20
2019-01-24T03:14:59.571Z,77.20
2019-01-24T03:19:04.215Z,76.80
2019-01-24T03:23:08.703Z,77.10
2019-01-24T03:27:13.235Z,77.20
2019-01-24T03:31:17.777Z,77.10
2019-01-24T03:35:24.489Z,77.20
2019-01-24T03:39:29.055Z,77.30
2019-01-24T03:43:33.662Z,77.20
2019-01-24T03:47:38.199Z,77.50
2019-01-24T03:51:42.759Z,77.40
2019-01-24T03:55:47.317Z,77.20
2019-01-24T03:59:51.826Z,77.40
2019-01-24T04:03:56.373Z,77.20
2019-01-24T04:08:00.920Z,77.40
2019-01-24T04:12:05.658Z,77.10
2019-01-24T04:16:10.259Z,77.00
2019-01-24T04:20:14.871Z,77.20
2019-01-24T04:24:19.412Z,77.10
2019-01-24T04:28:23.981Z,77.10
2019-01-24T04:32:28.518Z,76.80
2019-01-24T04:36:33.024Z,76.90
2019-01-24T04:40:37.617Z,76.80
2019-01-24T04:44:42.157Z,76.80
2019-01-24T04:48:46.788Z,76.70
2019-01-24T04:52:51.356Z,76.70
2019-01-24T04:56:55.855Z,77.10
2019-01-24T05:01:00.416Z,77.20
2019-01-24T05:05:05.283Z,76.90
2019-01-24T05:09:09.816Z,76.90
2019-01-24T05:13:14.336Z,76.90
2019-01-24T05:17:18.881Z,76.90
2019-01-24T05:21:23.415Z,76.90
2019-01-24T05:25:27.964Z,76.80
2019-01-24T05:29:32.469Z,76.90
2019-01-24T05:33:37.016Z,76.80
2019-01-24T05:37:41.564Z,76.60
2019-01-24T06:50:17.461Z,75.00
2019-01-24T06:54:22.471Z,75.60
2019-01-24T06:58:26.946Z,75.50
2019-01-24T07:05:58.703Z,75.00
2019-01-24T07:10:03.271Z,75.60
2019-01-24T07:14:07.779Z,75.60
2019-01-24T08:06:11.773Z,74.80
2019-01-24T08:10:17.652Z,75.70
2019-01-24T09:14:21.599Z,74.50
2019-01-24T09:30:05.688Z,74.90
2019-01-24T09:34:10.274Z,76.30
2019-01-24T09:42:20.855Z,77.00
2019-01-24T09:46:25.348Z,77.40
2019-01-24T09:58:31.245Z,78.10
2019-01-24T10:02:46.179Z,78.60
2019-01-24T10:06:50.788Z,78.70
2019-01-24T10:10:55.348Z,78.80
2019-01-24T10:14:59.924Z,78.90
2019-01-24T10:19:04.525Z,78.70
2019-01-24T10:25:56.877Z,79.10
2019-01-24T10:30:01.419Z,79.20
2019-01-24T10:34:06.527Z,79.30
2019-01-24T10:38:11.083Z,79.60
2019-01-24T10:42:15.672Z,79.50
2019-01-24T10:46:20.224Z,79.80
2019-01-24T10:50:25.568Z,79.10
2019-01-24T10:54:30.120Z,79.40
2019-01-24T11:02:34.028Z,79.70
2019-01-24T11:06:38.566Z,78.70
2019-01-24T11:17:41.013Z,78.80
2019-01-24T11:23:49.642Z,79.90
2019-01-24T11:27:54.166Z,79.50
2019-01-24T11:31:58.673Z,79.20
2019-01-24T11:36:03.425Z,79.80
2019-01-24T11:40:09.774Z,79.30
2019-01-24T11:44:14.334Z,80.50
2019-01-24T11:48:18.839Z,80.30
2019-01-24T11:55:53.399Z,79.20
2019-01-24T11:59:57.949Z,79.40
2019-01-24T12:04:57.060Z,79.20
2019-01-24T12:09:01.660Z,79.00
2019-01-24T12:13:06.508Z,78.40
2019-01-24T12:17:11.047Z,79.20
2019-01-24T12:21:16.439Z,79.50
2019-01-24T12:25:21.151Z,79.90
2019-01-24T12:29:25.701Z,79.80
2019-01-24T12:34:45.850Z,79.70
2019-01-24T12:44:07.648Z,79.40
2019-01-24T12:48:12.238Z,80.00
2019-01-24T12:52:16.843Z,79.90
2019-01-24T12:56:21.350Z,80.10
2019-01-24T13:02:13.433Z,80.00
2019-01-24T13:06:17.944Z,79.40
2019-01-24T13:10:23.999Z,79.60
2019-01-24T13:16:23.379Z,79.70
2019-01-24T13:23:05.955Z,79.50
2019-01-24T13:31:49.285Z,79.80
2019-01-24T13:41:58.740Z,79.80
2019-01-24T13:46:06.518Z,77.90
2019-01-24T13:50:13.923Z,79.70
2019-01-24T13:55:57.713Z,79.90
2019-01-24T14:00:49.516Z,79.80
2019-01-24T14:04:54.195Z,80.60
2019-01-24T14:08:58.759Z,80.60
2019-01-24T14:20:09.031Z,79.20
2019-01-24T14:24:13.574Z,80.10
2019-01-24T14:28:19.344Z,80.40
2019-01-24T14:32:23.880Z,80.50
2019-01-24T14:36:28.433Z,80.60
2019-01-24T14:40:33.081Z,80.50
2019-01-24T14:44:37.621Z,80.30
2019-01-24T14:48:42.167Z,80.30
2019-01-24T14:52:46.711Z,80.30
2019-01-24T14:59:19.470Z,79.30
2019-01-24T15:08:49.279Z,79.40
2019-01-24T15:21:00.105Z,79.80
2019-01-24T15:28:48.909Z,79.60
2019-01-24T15:39:33.988Z,79.40
2019-01-24T15:47:42.247Z,79.40
2019-01-24T15:54:19.960Z,79.60
2019-01-24T15:58:24.483Z,78.90
2019-01-24T16:03:40.347Z,79.70
2019-01-24T16:07:44.831Z,79.70
2019-01-24T16:11:49.379Z,79.80
2019-01-24T16:19:15.529Z,79.40
2019-01-24T16:24:16.371Z,79.50
2019-01-24T16:33:37.263Z,79.10
2019-01-24T16:39:09.657Z,79.20
2019-01-24T16:47:52.512Z,79.20
2019-01-24T16:51:57.015Z,80.00
2019-01-24T16:56:25.599Z,79.40
2019-01-24T17:01:20.163Z,79.50
2019-01-24T17:05:24.714Z,79.60
2019-01-24T17:09:47.423Z,79.50
2019-01-24T17:13:51.955Z,80.10
2019-01-24T17:17:56.455Z,80.10
2019-01-24T17:25:17.613Z,79.60
2019-01-24T17:29:22.432Z,79.90
2019-01-24T17:34:26.660Z,79.80
2019-01-24T17:46:10.807Z,79.90
2019-01-24T17:54:46.767Z,80.00
2019-01-24T18:00:16.180Z,79.80
2019-01-24T18:04:21.719Z,80.00
2019-01-24T18:08:31.177Z,80.00
2019-01-24T18:13:11.736Z,80.00
2019-01-24T18:20:32.674Z,80.00
2019-01-24T18:24:37.211Z,80.10
2019-01-24T18:28:41.749Z,80.00
2019-01-24T18:32:46.379Z,79.90
2019-01-24T18:43:26.068Z,80.00
2019-01-24T18:57:57.209Z,80.00
2019-01-24T19:02:01.714Z,80.10
2019-01-24T19:10:23.236Z,80.00
2019-01-24T19:18:43.800Z,79.80
2019-01-24T19:25:36.749Z,79.50
2019-01-24T19:36:58.008Z,80.00
2019-01-24T19:41:02.551Z,79.90
2019-01-24T19:45:10.971Z,79.80
2019-01-24T19:49:15.507Z,79.60
2019-01-24T19:53:20.128Z,79.50
2019-01-24T19:59:08.000Z,79.40
2019-01-24T20:04:43.408Z,79.30
2019-01-24T20:16:53.860Z,79.00
2019-01-24T20:24:09.152Z,79.50
2019-01-24T20:30:01.301Z,78.90
2019-01-24T20:36:46.042Z,79.20
2019-01-24T20:42:59.699Z,79.10
2019-01-24T20:53:44.557Z,79.20
2019-01-24T21:17:57.399Z,79.60
2019-01-24T21:22:01.923Z,79.70
2019-01-24T21:26:06.472Z,79.80
2019-01-24T21:30:17.373Z,79.90
2019-01-24T21:35:57.240Z,79.60
2019-01-24T21:41:25.756Z,79.80
2019-01-24T22:05:58.872Z,79.20
2019-01-24T22:10:03.403Z,79.10
2019-01-24T22:14:07.946Z,79.10
2019-01-24T22:18:12.484Z,79.10
2019-01-24T22:22:17.088Z,79.30
2019-01-24T22:28:48.069Z,79.40
2019-01-24T22:36:07.881Z,79.40
2019-01-24T22:40:12.804Z,79.50
2019-01-24T22:44:17.335Z,79.40
2019-01-24T22:53:59.961Z,79.40
2019-01-24T23:07:54.663Z,79.30
2019-01-24T23:13:27.431Z,79.40
2019-01-24T23:32:30.531Z,79.10
2019-01-24T23:39:10.643Z,79.00
2019-01-24T23:45:22.091Z,79.30
2019-01-24T23:49:26.623Z,79.90
2019-01-24T23:57:13.146Z,79.20
